Suomigracht — PHBT — position and weather

sailwx.info

Track history (hours):
 
Tides and Currents Weather Stations Pressure Air Temp Water Temp Dewpoint Dewpoint Depression Visibility Wind Speed Wind Dir Waves Ship Positions

Suomigracht

Last reported at 2015-May-25 11:31 UTC. Time now 2015-May-25 17:41 UTC.
Position N 26°46' W 080°03'.

Length 173 m; beam 26 m.

Type: Ship (hazmat cat A). MMSI: 246100000.

Date/timePositionNaut miles runAvg speedWind from/ knotsBaromVisibWave heightAir tempDewpointWater temp
2015-May-25 11:31N 26°46' W 080°03'6 6.5
2015-May-25 10:33N 26°49' W 079°57'1110.8
2015-May-25 09:33N 26°59' W 079°52'73814.8
2015-May-23 07:33N 38°32' W 074°49'1817.6
2015-May-23 06:33N 38°46' W 075°02'1515.4
2015-May-23 05:33N 39°01' W 075°09'4414.4
2015-May-23 02:31N 39°41' W 075°31'1111.2
2015-May-23 01:33N 39°50' W 075°22'2 2.0
2015-May-23 00:33N 39°51' W 075°21'0 0.0
2015-May-22 23:33N 39°51' W 075°21'0 0.0
2015-May-22 19:29N 39°51' W 075°21'0 0.0
2015-May-22 14:20N 39°51' W 075°21'0 0.0
2015-May-22 12:05N 39°51' W 075°21'0 0.0
2015-May-22 11:07N 39°51' W 075°21'0 0.1
2015-May-22 09:19N 39°51' W 075°20'0 0.1
2015-May-22 08:31N 39°51' W 075°20'0 0.0
2015-May-22 07:31N 39°51' W 075°20'0 0.0
2015-May-22 06:31N 39°51' W 075°20'0 0.0
2015-May-22 05:31N 39°51' W 075°20'0 0.0
2015-May-22 04:31N 39°51' W 075°20'0 0.0
2015-May-22 03:31N 39°51' W 075°20'0 0.0
2015-May-22 02:31N 39°51' W 075°20'0 0.0
2015-May-22 01:31N 39°51' W 075°20'0 0.0
2015-May-22 00:31N 39°51' W 075°20'0 0.0
2015-May-21 23:31N 39°51' W 075°20'0 0.0
2015-May-21 22:31N 39°51' W 075°20'0 0.0
2015-May-21 21:31N 39°51' W 075°20'0 0.0
2015-May-21 20:31N 39°51' W 075°20'0 0.0
2015-May-21 19:31N 39°51' W 075°20'0 0.0
2015-May-21 18:31N 39°51' W 075°20'0 0.0
2015-May-21 17:31N 39°51' W 075°20'0 0.2
2015-May-21 16:34N 39°51' W 075°20'8 7.9
2015-May-21 15:33N 39°46' W 075°28'1312.8
2015-May-21 14:34N 39°34' W 075°33'1414.3
2015-May-21 13:34N 39°21' W 075°26'1615.9
2015-May-21 12:34N 39°08' W 075°14'1616.2
2015-May-21 11:34N 38°53' W 075°05'10 9.5
2015-May-21 10:33N 38°48' W 074°55'6710.9
2015-May-21 04:21N 39°34' W 073°52'1114.0
2015-May-21 03:33N 39°46' W 073°51'4113.7
2015-May-21 00:33N 40°27' W 073°51'1212.2
2015-May-20 23:34N 40°35' W 074°02'5 5.2
2015-May-20 22:32N 40°40' W 074°05'0 0.0
2015-May-20 21:23N 40°40' W 074°05'0 0.0
2015-May-20 20:32N 40°40' W 074°05'0 0.0
2015-May-20 19:32N 40°40' W 074°05'0 0.0
2015-May-20 18:32N 40°40' W 074°05'0 0.0
2015-May-20 17:32N 40°40' W 074°05'0 0.0
2015-May-20 16:32N 40°40' W 074°05'0 0.0
2015-May-20 15:32N 40°40' W 074°05'0 0.0
2015-May-20 14:23N 40°40' W 074°05'0 0.0
2015-May-20 13:32N 40°40' W 074°05'0 0.0
2015-May-20 12:32N 40°40' W 074°05'0 0.0
2015-May-20 11:32N 40°40' W 074°05'0 0.0
2015-May-20 10:32N 40°40' W 074°05'0 0.0
2015-May-20 09:32N 40°40' W 074°05'0 0.0
2015-May-20 08:32N 40°40' W 074°05'0 0.0
2015-May-20 07:26N 40°40' W 074°05'0 0.0
2015-May-20 06:32N 40°40' W 074°05'0 0.0
2015-May-20 05:32N 40°40' W 074°05'0 0.0
2015-May-20 04:32N 40°40' W 074°05'0 0.0
2015-May-20 03:32N 40°40' W 074°05'0 0.0
2015-May-20 02:32N 40°40' W 074°05'0 0.0
2015-May-20 01:32N 40°40' W 074°05'0 0.0
2015-May-20 00:32N 40°40' W 074°05'0 0.0
2015-May-19 23:32N 40°40' W 074°05'0 0.0
2015-May-19 22:32N 40°40' W 074°05'0 0.0
2015-May-19 21:32N 40°40' W 074°05'0 0.0
2015-May-19 20:32N 40°40' W 074°05'0 0.0
2015-May-19 19:32N 40°40' W 074°05'0 0.0
2015-May-19 18:29N 40°40' W 074°05'1 1.2
2015-May-19 17:33N 40°40' W 074°04'10 9.6
2015-May-19 16:33N 40°31' W 073°59'1010.0
2015-May-19 15:33N 40°28' W 073°46'5 5.1
2015-May-19 14:34N 40°24' W 073°42'4913.9
2015-May-19 11:03N 40°08' W 072°42'714.8
2015-May-19 10:34N 40°08' W 072°32'1514.9
2015-May-19 09:34N 40°07' W 072°13'1515.1
2015-May-19 08:34N 40°07' W 071°53'1616.0
2015-May-19 07:34N 40°06' W 071°32'1615.9
2015-May-19 06:33N 40°06' W 071°11'1616.2
2015-May-19 05:33N 40°06' W 070°50'1616.1
2015-May-19 04:33N 40°06' W 070°29'1615.6
2015-May-19 03:34N 40°06' W 070°09'1515.4
2015-May-19 02:34N 40°06' W 069°49'1515.3
2015-May-19 01:34N 40°05' W 069°29'1615.6
2015-May-19 00:31N 40°05' W 069°07'1515.4
2015-May-18 23:33N 40°05' W 068°48'  
Track history (hours):
 
Tides and Currents Weather Stations Pressure Air Temp Water Temp Dewpoint Dewpoint Depression Visibility Wind Speed Wind Dir Waves Ship Positions

Suomigracht

Last reported at 2015-May-25 11:31 UTC. Time now 2015-May-25 17:41 UTC.
Position N 26°46' W 080°03'.

Length 173 m; beam 26 m.

Type: Ship (hazmat cat A). MMSI: 246100000.

Date/timePositionNaut miles runAvg speedWind from/ knotsBaromVisibWave heightAir tempDewpointWater temp
2015-May-25 11:31N 26°46' W 080°03'6 6.5
2015-May-25 10:33N 26°49' W 079°57'1110.8
2015-May-25 09:33N 26°59' W 079°52'73814.8
2015-May-23 07:33N 38°32' W 074°49'1817.6
2015-May-23 06:33N 38°46' W 075°02'1515.4
2015-May-23 05:33N 39°01' W 075°09'4414.4
2015-May-23 02:31N 39°41' W 075°31'1111.2
2015-May-23 01:33N 39°50' W 075°22'2 2.0
2015-May-23 00:33N 39°51' W 075°21'0 0.0
2015-May-22 23:33N 39°51' W 075°21'0 0.0
2015-May-22 19:29N 39°51' W 075°21'0 0.0
2015-May-22 14:20N 39°51' W 075°21'0 0.0
2015-May-22 12:05N 39°51' W 075°21'0 0.0
2015-May-22 11:07N 39°51' W 075°21'0 0.1
2015-May-22 09:19N 39°51' W 075°20'0 0.1
2015-May-22 08:31N 39°51' W 075°20'0 0.0
2015-May-22 07:31N 39°51' W 075°20'0 0.0
2015-May-22 06:31N 39°51' W 075°20'0 0.0
2015-May-22 05:31N 39°51' W 075°20'0 0.0
2015-May-22 04:31N 39°51' W 075°20'0 0.0
2015-May-22 03:31N 39°51' W 075°20'0 0.0
2015-May-22 02:31N 39°51' W 075°20'0 0.0
2015-May-22 01:31N 39°51' W 075°20'0 0.0
2015-May-22 00:31N 39°51' W 075°20'0 0.0
2015-May-21 23:31N 39°51' W 075°20'0 0.0
2015-May-21 22:31N 39°51' W 075°20'0 0.0
2015-May-21 21:31N 39°51' W 075°20'0 0.0
2015-May-21 20:31N 39°51' W 075°20'0 0.0
2015-May-21 19:31N 39°51' W 075°20'0 0.0
2015-May-21 18:31N 39°51' W 075°20'0 0.0
2015-May-21 17:31N 39°51' W 075°20'0 0.2
2015-May-21 16:34N 39°51' W 075°20'8 7.9
2015-May-21 15:33N 39°46' W 075°28'1312.8
2015-May-21 14:34N 39°34' W 075°33'1414.3
2015-May-21 13:34N 39°21' W 075°26'1615.9
2015-May-21 12:34N 39°08' W 075°14'1616.2
2015-May-21 11:34N 38°53' W 075°05'10 9.5
2015-May-21 10:33N 38°48' W 074°55'6710.9
2015-May-21 04:21N 39°34' W 073°52'1114.0
2015-May-21 03:33N 39°46' W 073°51'4113.7
2015-May-21 00:33N 40°27' W 073°51'1212.2
2015-May-20 23:34N 40°35' W 074°02'5 5.2
2015-May-20 22:32N 40°40' W 074°05'0 0.0
2015-May-20 21:23N 40°40' W 074°05'0 0.0
2015-May-20 20:32N 40°40' W 074°05'0 0.0
2015-May-20 19:32N 40°40' W 074°05'0 0.0
2015-May-20 18:32N 40°40' W 074°05'0 0.0
2015-May-20 17:32N 40°40' W 074°05'0 0.0
2015-May-20 16:32N 40°40' W 074°05'0 0.0
2015-May-20 15:32N 40°40' W 074°05'0 0.0
2015-May-20 14:23N 40°40' W 074°05'0 0.0
2015-May-20 13:32N 40°40' W 074°05'0 0.0
2015-May-20 12:32N 40°40' W 074°05'0 0.0
2015-May-20 11:32N 40°40' W 074°05'0 0.0
2015-May-20 10:32N 40°40' W 074°05'0 0.0
2015-May-20 09:32N 40°40' W 074°05'0 0.0
2015-May-20 08:32N 40°40' W 074°05'0 0.0
2015-May-20 07:26N 40°40' W 074°05'0 0.0
2015-May-20 06:32N 40°40' W 074°05'0 0.0
2015-May-20 05:32N 40°40' W 074°05'0 0.0
2015-May-20 04:32N 40°40' W 074°05'0 0.0
2015-May-20 03:32N 40°40' W 074°05'0 0.0
2015-May-20 02:32N 40°40' W 074°05'0 0.0
2015-May-20 01:32N 40°40' W 074°05'0 0.0
2015-May-20 00:32N 40°40' W 074°05'0 0.0
2015-May-19 23:32N 40°40' W 074°05'0 0.0
2015-May-19 22:32N 40°40' W 074°05'0 0.0
2015-May-19 21:32N 40°40' W 074°05'0 0.0
2015-May-19 20:32N 40°40' W 074°05'0 0.0
2015-May-19 19:32N 40°40' W 074°05'0 0.0
2015-May-19 18:29N 40°40' W 074°05'1 1.2
2015-May-19 17:33N 40°40' W 074°04'10 9.6
2015-May-19 16:33N 40°31' W 073°59'1010.0
2015-May-19 15:33N 40°28' W 073°46'5 5.1
2015-May-19 14:34N 40°24' W 073°42'4913.9
2015-May-19 11:03N 40°08' W 072°42'714.8
2015-May-19 10:34N 40°08' W 072°32'1514.9
2015-May-19 09:34N 40°07' W 072°13'1515.1
2015-May-19 08:34N 40°07' W 071°53'1616.0
2015-May-19 07:34N 40°06' W 071°32'1615.9
2015-May-19 06:33N 40°06' W 071°11'1616.2
2015-May-19 05:33N 40°06' W 070°50'1616.1
2015-May-19 04:33N 40°06' W 070°29'1615.6
2015-May-19 03:34N 40°06' W 070°09'1515.4
2015-May-19 02:34N 40°06' W 069°49'1515.3
2015-May-19 01:34N 40°05' W 069°29'1615.6
2015-May-19 00:31N 40°05' W 069°07'1515.4
2015-May-18 23:33N 40°05' W 068°48'  

Dump ship's entire track history